Terminal Aerodrome Forecast
Issued by NWS

Home | Current Version | Previous Version | Text Only | Print | Product List | Glossary On
Versions: 1 2 3 4 5 6 7 8 9 10 11 12 13 14 15 16 17 18 19 20 21 22 23 24 25 26 27 28
282
FTUS43 KIND 210520
TAFLAF
TAF
KLAF 210520Z 2106/2206 15008KT P6SM SCT025 BKN040
     FM210800 17007KT 6SM BR BKN020
     FM211500 18009KT P6SM BKN020 BKN045
     FM211600 18010KT P6SM SCT045 BKN070
     FM220000 18006KT P6SM SCT045 BKN050
     FM220300 17005KT P6SM BKN025
     FM220500 16004KT P6SM OVC015
      AMD LTD TO CLD VIS AND WIND TIL 211400=

USA.gov is the U.S. government's official web portal to all federal, state and local government web resources and services.